createdAt,value
2018-01-30T00:01:44.755Z,102624.36
2018-01-30T00:04:12.524Z,102630.06
2018-01-30T00:06:40.524Z,102627.34
2018-01-30T00:09:08.185Z,102622.92
2018-01-30T00:11:36.094Z,102632.56
2018-01-30T00:14:03.833Z,102644.94
2018-01-30T00:16:31.479Z,102637.05
2018-01-30T00:18:59.221Z,102648.73
2018-01-30T00:21:26.926Z,102640.97
2018-01-30T00:23:54.628Z,102643.82
2018-01-30T00:26:22.387Z,102642.08
2018-01-30T00:28:50.409Z,102635.25
2018-01-30T00:31:18.321Z,102642.70
2018-01-30T00:33:46.026Z,102645.73
2018-01-30T00:36:13.746Z,102646.44
2018-01-30T00:38:41.754Z,102648.74
2018-01-30T00:41:09.513Z,102645.73
2018-01-30T00:43:37.316Z,102645.55
2018-01-30T00:46:05.089Z,102642.25
2018-01-30T00:48:32.849Z,102639.11
2018-01-30T00:51:00.516Z,102631.36
2018-01-30T00:53:28.290Z,102639.03
2018-01-30T00:55:56.030Z,102637.34
2018-01-30T00:58:23.789Z,102641.07
2018-01-30T01:00:51.541Z,102636.77
2018-01-30T01:03:19.246Z,102639.92
2018-01-30T01:05:46.973Z,102643.77
2018-01-30T01:08:14.703Z,102654.28
2018-01-30T01:10:42.411Z,102647.06
2018-01-30T01:13:10.121Z,102643.19
2018-01-30T01:15:37.847Z,102648.56
2018-01-30T01:18:05.624Z,102647.57
2018-01-30T01:20:33.291Z,102642.20
2018-01-30T01:23:00.964Z,102637.70
2018-01-30T01:25:28.640Z,102624.73
2018-01-30T01:27:56.426Z,102625.77
2018-01-30T01:30:24.119Z,102618.55
2018-01-30T01:32:51.802Z,102627.88
2018-01-30T01:35:19.514Z,102633.48
2018-01-30T01:37:47.190Z,102629.76
2018-01-30T01:40:14.872Z,102625.54
2018-01-30T01:42:42.589Z,102621.02
2018-01-30T01:45:10.304Z,102629.91
2018-01-30T01:47:37.985Z,102636.55
2018-01-30T01:50:05.618Z,102641.73
2018-01-30T01:52:33.274Z,102641.95
2018-01-30T01:55:01.189Z,102646.91
2018-01-30T01:57:28.844Z,102642.46
2018-01-30T01:59:56.602Z,102645.38
2018-01-30T02:02:24.259Z,102637.81
2018-01-30T02:04:52.308Z,102639.96
2018-01-30T02:07:20.017Z,102636.20
2018-01-30T02:09:47.693Z,102634.05
2018-01-30T02:12:15.430Z,102631.36
2018-01-30T02:14:43.115Z,102634.66
2018-01-30T02:17:11.236Z,102633.55
2018-01-30T02:19:38.887Z,102631.39
2018-01-30T02:22:07.106Z,102628.83
2018-01-30T02:24:34.865Z,102629.13
2018-01-30T02:27:02.636Z,102627.29
2018-01-30T02:29:30.425Z,102629.36
2018-01-30T02:31:58.292Z,102625.59
2018-01-30T02:34:25.981Z,102631.61
2018-01-30T02:36:54.181Z,102638.09
2018-01-30T02:39:22.173Z,102632.53
2018-01-30T02:41:49.943Z,102634.49
2018-01-30T02:44:17.684Z,102636.14
2018-01-30T02:46:45.464Z,102642.77
2018-01-30T02:49:13.234Z,102638.58
2018-01-30T02:51:40.951Z,102633.05
2018-01-30T02:54:08.746Z,102638.00
2018-01-30T02:56:36.809Z,102635.31
2018-01-30T02:59:04.596Z,102646.55
2018-01-30T03:01:32.367Z,102647.20
2018-01-30T03:04:00.225Z,102648.12
2018-01-30T03:06:27.983Z,102649.88
2018-01-30T03:08:55.765Z,102654.13
2018-01-30T03:11:23.567Z,102665.09
2018-01-30T03:13:51.299Z,102657.31
2018-01-30T03:16:19.644Z,102648.88
2018-01-30T03:18:47.824Z,102657.73
2018-01-30T03:21:15.620Z,102651.59
2018-01-30T03:23:43.429Z,102666.35
2018-01-30T03:26:11.283Z,102661.59
2018-01-30T03:28:39.292Z,102658.50
2018-01-30T03:31:07.406Z,102666.44
2018-01-30T03:33:35.973Z,102670.87
2018-01-30T03:36:03.859Z,102660.98
2018-01-30T03:38:31.920Z,102667.58
2018-01-30T03:40:59.854Z,102672.39
2018-01-30T03:43:27.665Z,102671.97
2018-01-30T03:45:55.692Z,102672.55
2018-01-30T03:48:23.446Z,102674.13
2018-01-30T03:50:51.227Z,102670.81
2018-01-30T03:53:19.124Z,102668.02
2018-01-30T03:55:46.862Z,102667.78
2018-01-30T03:58:14.588Z,102668.92
2018-01-30T04:00:42.776Z,102676.24
2018-01-30T04:03:10.526Z,102670.77
2018-01-30T04:05:38.934Z,102658.77
2018-01-30T04:08:06.610Z,102660.23
2018-01-30T04:10:34.890Z,102669.63
2018-01-30T04:13:02.781Z,102675.09
2018-01-30T04:15:30.904Z,102663.13
2018-01-30T04:17:58.677Z,102666.23
2018-01-30T04:20:26.429Z,102673.92
2018-01-30T04:22:54.523Z,102669.98
2018-01-30T04:25:22.526Z,102665.31
2018-01-30T04:27:51.377Z,102666.45
2018-01-30T04:30:19.216Z,102686.59
2018-01-30T04:32:46.966Z,102691.12
2018-01-30T04:35:14.672Z,102684.94
2018-01-30T04:37:42.547Z,102691.42
2018-01-30T04:40:10.264Z,102703.25
2018-01-30T04:42:38.200Z,102714.63
2018-01-30T04:45:06.084Z,102702.70
2018-01-30T04:47:37.085Z,102693.69
2018-01-30T04:50:05.694Z,102712.45
2018-01-30T04:52:33.464Z,102708.76
2018-01-30T04:55:01.334Z,102705.09
2018-01-30T04:57:29.187Z,102706.75
2018-01-30T04:59:57.238Z,102706.22
2018-01-30T05:02:25.018Z,102705.21
2018-01-30T05:04:54.204Z,102708.63
2018-01-30T05:07:22.109Z,102708.03
2018-01-30T05:09:50.249Z,102707.39
2018-01-30T05:12:17.953Z,102704.59
2018-01-30T05:14:48.753Z,102712.25
2018-01-30T05:17:18.622Z,102719.61
2018-01-30T05:19:48.791Z,102720.89
2018-01-30T05:22:16.737Z,102719.34
2018-01-30T05:24:44.712Z,102722.03
2018-01-30T05:27:17.168Z,102728.06
2018-01-30T05:29:46.221Z,102720.33
2018-01-30T05:32:15.387Z,102703.52
2018-01-30T05:34:44.428Z,102699.16
2018-01-30T05:37:13.320Z,102698.58
2018-01-30T05:39:41.064Z,102710.01
2018-01-30T05:42:09.905Z,102707.55
2018-01-30T05:44:38.440Z,102706.92
2018-01-30T05:47:07.808Z,102701.88
2018-01-30T05:49:35.705Z,102699.92
2018-01-30T05:52:03.544Z,102698.72
2018-01-30T05:54:31.316Z,102700.25
2018-01-30T05:56:59.078Z,102691.70
2018-01-30T05:59:26.913Z,102695.36
2018-01-30T06:01:54.695Z,102696.79
2018-01-30T06:04:22.409Z,102698.66
2018-01-30T06:06:50.220Z,102703.59
2018-01-30T06:09:18.015Z,102694.81
2018-01-30T06:11:45.817Z,102691.48
2018-01-30T06:14:13.665Z,102699.56
2018-01-30T06:16:41.436Z,102699.98
2018-01-30T06:19:09.663Z,102712.44
2018-01-30T06:21:37.458Z,102711.63
2018-01-30T06:24:05.290Z,102712.16
2018-01-30T06:26:33.076Z,102719.15
2018-01-30T06:29:00.780Z,102723.28
2018-01-30T06:31:28.478Z,102725.08
2018-01-30T06:33:56.264Z,102727.53
2018-01-30T06:36:24.327Z,102723.62
2018-01-30T06:38:52.508Z,102725.80
2018-01-30T06:41:20.232Z,102730.59
2018-01-30T06:43:48.161Z,102731.43
2018-01-30T06:46:16.015Z,102723.94
2018-01-30T06:48:43.759Z,102728.91
2018-01-30T06:51:12.801Z,102715.80
2018-01-30T06:53:40.589Z,102715.27
2018-01-30T06:56:08.319Z,102716.72
2018-01-30T06:58:36.129Z,102712.50
2018-01-30T07:01:04.224Z,102710.04
2018-01-30T07:03:31.984Z,102714.09
2018-01-30T07:06:00.266Z,102714.84
2018-01-30T07:08:28.117Z,102719.16
2018-01-30T07:10:55.999Z,102723.09
2018-01-30T07:13:24.143Z,102728.90
2018-01-30T07:15:52.049Z,102722.00
2018-01-30T07:18:21.630Z,102723.89
2018-01-30T07:20:49.949Z,102719.13
2018-01-30T07:23:17.713Z,102720.91
2018-01-30T07:25:45.507Z,102727.20
2018-01-30T07:28:13.252Z,102721.94
2018-01-30T07:30:41.121Z,102724.05
2018-01-30T07:33:09.144Z,102733.92
2018-01-30T07:35:36.938Z,102733.77
2018-01-30T07:38:04.679Z,102730.33
2018-01-30T07:40:32.400Z,102731.36
2018-01-30T07:43:00.145Z,102740.47
2018-01-30T07:45:28.306Z,102741.17
2018-01-30T07:47:56.049Z,102740.36
2018-01-30T07:50:24.183Z,102736.24
2018-01-30T07:52:52.037Z,102738.28
2018-01-30T07:55:20.070Z,102736.24
2018-01-30T07:57:57.455Z,102723.74
2018-01-30T08:00:28.054Z,102725.17
2018-01-30T08:02:56.708Z,102727.33
2018-01-30T08:05:24.480Z,102722.69
2018-01-30T08:07:54.779Z,102730.30
2018-01-30T08:10:22.531Z,102735.66
2018-01-30T08:12:50.256Z,102744.33
2018-01-30T08:15:18.133Z,102736.27
2018-01-30T08:17:47.597Z,102740.67
2018-01-30T08:20:15.407Z,102738.30
2018-01-30T08:22:46.900Z,102731.08
2018-01-30T08:25:16.011Z,102718.88
2018-01-30T08:27:43.802Z,102717.09
2018-01-30T08:30:11.577Z,102721.61
2018-01-30T08:32:39.786Z,102723.73
2018-01-30T08:35:07.611Z,102717.01
2018-01-30T08:37:35.475Z,102715.73
2018-01-30T08:40:03.362Z,102716.41
2018-01-30T08:42:31.177Z,102715.97
2018-01-30T08:44:58.919Z,102704.65
2018-01-30T08:47:26.764Z,102711.19
2018-01-30T08:49:54.621Z,102715.38
2018-01-30T08:52:22.499Z,102721.54
2018-01-30T08:54:50.260Z,102711.80
2018-01-30T08:57:18.072Z,102709.40
2018-01-30T08:59:46.654Z,102715.55
2018-01-30T09:02:14.460Z,102710.03
2018-01-30T09:04:42.373Z,102708.97
2018-01-30T09:07:10.178Z,102713.55
2018-01-30T09:09:38.056Z,102715.81
2018-01-30T09:12:05.872Z,102715.02
2018-01-30T09:14:34.711Z,102715.48
2018-01-30T09:17:02.626Z,102713.54
2018-01-30T09:19:30.404Z,102724.72
2018-01-30T09:21:58.249Z,102723.48
2018-01-30T09:24:26.212Z,102730.02
2018-01-30T09:26:55.177Z,102721.38
2018-01-30T09:29:23.399Z,102728.06
2018-01-30T09:31:51.174Z,102728.45
2018-01-30T09:34:19.987Z,102730.13
2018-01-30T09:36:47.828Z,102730.55
2018-01-30T09:39:15.819Z,102730.63
2018-01-30T09:41:43.957Z,102734.92
2018-01-30T09:44:12.983Z,102739.91
2018-01-30T09:46:40.821Z,102742.64
2018-01-30T09:49:09.090Z,102739.05
2018-01-30T09:51:38.941Z,102735.70
2018-01-30T09:54:07.845Z,102738.85
2018-01-30T09:56:35.649Z,102743.06
2018-01-30T09:59:03.527Z,102741.74
2018-01-30T10:01:33.367Z,102744.31
2018-01-30T10:04:01.246Z,102739.77
2018-01-30T10:06:29.029Z,102739.14
2018-01-30T10:08:56.845Z,102745.10
2018-01-30T10:11:24.701Z,102750.97
2018-01-30T10:13:54.298Z,102757.30
2018-01-30T10:16:22.140Z,102754.43
2018-01-30T10:18:50.317Z,102759.30
2018-01-30T10:21:18.187Z,102764.69
2018-01-30T10:23:46.398Z,102757.61
2018-01-30T10:26:14.212Z,102755.91
2018-01-30T10:28:42.024Z,102767.23
2018-01-30T10:31:10.413Z,102760.59
2018-01-30T10:33:38.359Z,102753.16
2018-01-30T10:36:06.599Z,102757.34
2018-01-30T10:38:34.455Z,102753.19
2018-01-30T10:41:02.231Z,102765.02
2018-01-30T10:43:30.118Z,102752.34
2018-01-30T10:45:58.206Z,102758.67
2018-01-30T10:48:26.194Z,102757.81
2018-01-30T10:50:54.107Z,102749.48
2018-01-30T10:53:21.864Z,102751.02
2018-01-30T10:55:49.722Z,102749.48
2018-01-30T10:58:17.575Z,102745.28
2018-01-30T11:00:45.629Z,102730.89
2018-01-30T11:03:13.385Z,102733.34
2018-01-30T11:05:41.212Z,102726.88
2018-01-30T11:08:10.659Z,102737.20
2018-01-30T11:10:38.424Z,102741.30
2018-01-30T11:13:07.106Z,102740.58
2018-01-30T11:15:35.407Z,102739.36
2018-01-30T11:18:03.423Z,102753.75
2018-01-30T11:20:31.728Z,102748.61
2018-01-30T11:22:59.507Z,102748.79
2018-01-30T11:25:27.267Z,102739.96
2018-01-30T11:27:56.107Z,102739.54
2018-01-30T11:30:24.263Z,102728.47
2018-01-30T11:32:52.071Z,102726.67
2018-01-30T11:35:20.021Z,102725.03
2018-01-30T11:37:48.035Z,102727.66
2018-01-30T11:40:16.071Z,102718.98
2018-01-30T11:42:43.840Z,102717.09
2018-01-30T11:45:11.831Z,102709.43
2018-01-30T11:47:39.712Z,102714.52
2018-01-30T11:50:08.859Z,102713.77
2018-01-30T11:52:37.484Z,102713.16
2018-01-30T11:55:05.312Z,102708.30
2018-01-30T11:57:33.011Z,102710.80
2018-01-30T12:00:00.948Z,102710.02
2018-01-30T12:02:28.726Z,102710.48
2018-01-30T12:04:56.841Z,102703.80
2018-01-30T12:07:24.789Z,102690.44
2018-01-30T12:09:52.585Z,102686.51
2018-01-30T12:12:24.456Z,102678.82
2018-01-30T12:14:53.003Z,102678.73
2018-01-30T12:17:21.093Z,102669.37
2018-01-30T12:19:48.880Z,102662.87
2018-01-30T12:22:16.621Z,102660.41
2018-01-30T12:24:44.649Z,102660.70
2018-01-30T12:27:12.634Z,102658.13
2018-01-30T12:29:40.444Z,102652.78
2018-01-30T12:32:08.198Z,102648.66
2018-01-30T12:34:37.056Z,102641.50
2018-01-30T12:37:05.855Z,102631.64
2018-01-30T12:39:33.643Z,102625.20
2018-01-30T12:42:02.399Z,102621.42
2018-01-30T12:44:30.276Z,102620.61
2018-01-30T12:46:58.077Z,102618.70
2018-01-30T12:49:25.945Z,102612.88
2018-01-30T12:51:53.722Z,102610.95
2018-01-30T12:54:23.418Z,102606.22
2018-01-30T12:56:51.603Z,102609.23
2018-01-30T12:59:19.354Z,102611.61
2018-01-30T13:01:52.188Z,102611.06
2018-01-30T13:04:22.780Z,102610.26
2018-01-30T13:06:51.957Z,102601.23
2018-01-30T13:09:19.836Z,102594.92
2018-01-30T13:11:47.611Z,102588.78
2018-01-30T13:14:15.391Z,102589.80
2018-01-30T13:16:43.215Z,102584.33
2018-01-30T13:19:10.996Z,102583.27
2018-01-30T13:21:38.785Z,102585.30
2018-01-30T13:24:08.748Z,102579.47
2018-01-30T13:26:36.511Z,102566.75
2018-01-30T13:29:04.325Z,102568.98
2018-01-30T13:31:32.081Z,102573.55
2018-01-30T13:33:59.755Z,102575.99
2018-01-30T13:36:27.515Z,102573.84
2018-01-30T13:38:56.388Z,102574.64
2018-01-30T13:41:24.088Z,102573.38
2018-01-30T13:43:51.813Z,102567.78
2018-01-30T13:46:19.607Z,102564.41
2018-01-30T13:48:47.420Z,102565.33
2018-01-30T13:51:15.178Z,102565.87
2018-01-30T13:53:42.963Z,102569.00
2018-01-30T13:56:10.780Z,102562.84
2018-01-30T13:58:39.156Z,102561.69
2018-01-30T14:01:06.884Z,102554.95
2018-01-30T14:03:34.615Z,102561.73
2018-01-30T14:06:02.473Z,102563.39
2018-01-30T14:08:30.391Z,102554.70
2018-01-30T14:10:58.270Z,102549.34
2018-01-30T14:13:26.017Z,102543.19
2018-01-30T14:15:53.955Z,102534.75
2018-01-30T14:18:21.819Z,102536.22
2018-01-30T14:20:49.548Z,102537.70
2018-01-30T14:23:17.687Z,102534.45
2018-01-30T14:25:45.384Z,102536.50
2018-01-30T14:28:13.193Z,102538.12
2018-01-30T14:30:41.396Z,102537.31
2018-01-30T14:33:09.161Z,102521.63
2018-01-30T14:35:36.895Z,102520.30
2018-01-30T14:38:05.074Z,102524.63
2018-01-30T14:40:32.874Z,102514.23
2018-01-30T14:43:00.629Z,102520.05
2018-01-30T14:45:28.418Z,102518.73
2018-01-30T14:47:56.091Z,102519.47
2018-01-30T14:50:24.217Z,102516.90
2018-01-30T14:52:52.048Z,102520.52
2018-01-30T14:55:20.767Z,102515.87
2018-01-30T14:57:48.994Z,102513.17
2018-01-30T15:00:16.734Z,102511.36
2018-01-30T15:02:44.462Z,102500.33
2018-01-30T15:05:12.487Z,102501.67
2018-01-30T15:07:40.228Z,102494.77
2018-01-30T15:10:08.118Z,102489.08
2018-01-30T15:12:36.967Z,102486.24
2018-01-30T15:15:06.167Z,102471.05
2018-01-30T15:17:33.948Z,102473.20
2018-01-30T15:20:01.791Z,102482.13
2018-01-30T15:22:33.789Z,102476.24
2018-01-30T15:25:05.183Z,102476.36
2018-01-30T15:27:33.287Z,102470.80
2018-01-30T15:30:03.357Z,102463.09
2018-01-30T15:32:32.032Z,102463.84
2018-01-30T15:34:59.794Z,102451.23
2018-01-30T15:37:27.449Z,102443.73
2018-01-30T15:39:55.316Z,102429.36
2018-01-30T15:42:23.118Z,102423.50
2018-01-30T15:44:50.874Z,102424.42
2018-01-30T15:47:18.618Z,102419.27
2018-01-30T15:49:46.392Z,102422.55
2018-01-30T15:52:14.402Z,102423.97
2018-01-30T15:54:42.154Z,102416.56
2018-01-30T15:57:09.941Z,102413.52
2018-01-30T15:59:37.676Z,102404.16
2018-01-30T16:02:05.485Z,102400.38
2018-01-30T16:04:33.257Z,102394.22
2018-01-30T16:07:01.046Z,102403.58
2018-01-30T16:09:30.041Z,102404.78
2018-01-30T16:11:57.746Z,102401.12
2018-01-30T16:14:25.565Z,102392.05
2018-01-30T16:19:28.660Z,102389.63
2018-01-30T16:21:56.395Z,102383.68
2018-01-30T16:24:24.136Z,102370.47
2018-01-30T16:26:51.873Z,102373.49
2018-01-30T16:29:19.995Z,102370.62
2018-01-30T16:31:47.755Z,102366.15
2018-01-30T16:34:15.516Z,102361.41
2018-01-30T16:36:43.347Z,102356.64
2018-01-30T16:39:11.023Z,102355.67
2018-01-30T16:41:38.740Z,102350.87
2018-01-30T16:44:06.454Z,102339.13
2018-01-30T16:46:34.184Z,102325.74
2018-01-30T16:49:01.862Z,102321.66
2018-01-30T16:51:29.588Z,102316.09
2018-01-30T16:53:57.515Z,102313.89
2018-01-30T16:56:25.228Z,102316.86
2018-01-30T16:58:53.044Z,102306.23
2018-01-30T17:01:20.792Z,102304.36
2018-01-30T17:03:48.513Z,102308.76
2018-01-30T17:06:16.149Z,102314.67
2018-01-30T17:08:43.901Z,102302.77
2018-01-30T17:11:11.597Z,102309.94
2018-01-30T17:13:39.328Z,102306.32
2018-01-30T17:16:07.113Z,102303.03
2018-01-30T17:18:35.384Z,102304.36
2018-01-30T17:21:03.068Z,102293.55
2018-01-30T17:23:30.823Z,102291.73
2018-01-30T17:25:58.535Z,102298.09
2018-01-30T17:28:26.244Z,102297.77
2018-01-30T17:30:53.942Z,102292.84
2018-01-30T17:33:21.733Z,102296.31
2018-01-30T17:35:49.441Z,102291.12
2018-01-30T17:38:17.620Z,102288.75
2018-01-30T17:40:45.305Z,102286.42
2018-01-30T17:43:13.066Z,102273.17
2018-01-30T17:45:40.770Z,102273.36
2018-01-30T17:48:08.460Z,102277.92
2018-01-30T17:50:36.202Z,102268.84
2018-01-30T17:53:03.922Z,102271.27
2018-01-30T17:55:31.618Z,102282.94
2018-01-30T17:57:59.375Z,102279.83
2018-01-30T18:00:28.193Z,102278.61
2018-01-30T18:02:55.884Z,102271.95
2018-01-30T18:05:23.601Z,102265.48
2018-01-30T18:07:51.292Z,102266.52
2018-01-30T18:10:19.067Z,102269.98
2018-01-30T18:12:46.784Z,102261.86
2018-01-30T18:15:14.905Z,102257.59
2018-01-30T18:17:42.697Z,102257.53
2018-01-30T18:20:10.472Z,102256.02
2018-01-30T18:22:38.264Z,102250.82
2018-01-30T18:25:06.029Z,102238.49
2018-01-30T18:27:33.723Z,102238.38
2018-01-30T18:30:01.488Z,102237.56
2018-01-30T18:32:29.737Z,102236.58
2018-01-30T18:34:57.490Z,102232.20
2018-01-30T18:37:25.213Z,102227.56
2018-01-30T18:39:52.987Z,102231.95
2018-01-30T18:42:20.720Z,102234.13
2018-01-30T18:44:48.433Z,102228.04
2018-01-30T18:47:16.114Z,102232.18
2018-01-30T18:49:43.794Z,102220.22
2018-01-30T18:52:11.592Z,102216.31
2018-01-30T18:54:39.751Z,102214.97
2018-01-30T18:57:07.831Z,102222.36
2018-01-30T18:59:35.554Z,102216.73
2018-01-30T19:02:03.382Z,102211.53
2018-01-30T19:04:31.093Z,102218.17
2018-01-30T19:06:58.869Z,102213.91
2018-01-30T19:09:26.672Z,102209.52
2018-01-30T19:11:54.683Z,102207.07
2018-01-30T19:14:22.437Z,102204.39
2018-01-30T19:16:50.234Z,102203.70
2018-01-30T19:19:17.998Z,102206.27
2018-01-30T19:21:45.741Z,102205.73
2018-01-30T19:24:13.521Z,102202.91
2018-01-30T19:26:41.230Z,102204.97
2018-01-30T19:29:12.146Z,102199.70
2018-01-30T19:31:40.176Z,102202.56
2018-01-30T19:36:41.962Z,102205.78
2018-01-30T19:39:09.722Z,102195.97
2018-01-30T19:41:38.107Z,102198.09
2018-01-30T19:44:06.358Z,102198.77
2018-01-30T19:46:34.125Z,102188.16
2018-01-30T19:49:01.873Z,102180.64
2018-01-30T19:51:29.705Z,102173.45
2018-01-30T19:53:57.451Z,102167.67
2018-01-30T19:56:25.327Z,102167.47
2018-01-30T19:58:53.158Z,102161.50
2018-01-30T20:01:22.476Z,102161.20
2018-01-30T20:03:51.176Z,102151.48
2018-01-30T20:06:18.931Z,102147.16
2018-01-30T20:08:46.597Z,102138.39
2018-01-30T20:11:14.322Z,102144.23
2018-01-30T20:13:42.129Z,102134.30
2018-01-30T20:16:09.895Z,102130.93
2018-01-30T20:18:38.423Z,102124.84
2018-01-30T20:21:06.193Z,102123.42
2018-01-30T20:23:34.280Z,102116.71
2018-01-30T20:26:01.957Z,102105.03
2018-01-30T20:28:29.626Z,102095.52
2018-01-30T20:30:57.329Z,102090.52
2018-01-30T20:33:25.031Z,102083.50
2018-01-30T20:35:53.034Z,102074.77
2018-01-30T20:38:20.727Z,102073.81
2018-01-30T20:40:48.417Z,102071.49
2018-01-30T20:43:17.047Z,102066.12
2018-01-30T20:45:44.914Z,102059.95
2018-01-30T20:48:12.720Z,102052.39
2018-01-30T20:50:40.530Z,102055.40
2018-01-30T20:53:08.339Z,102052.03
2018-01-30T20:55:36.054Z,102046.78
2018-01-30T20:58:03.873Z,102043.98
2018-01-30T21:00:31.631Z,102042.05
2018-01-30T21:02:59.375Z,102034.53
2018-01-30T21:05:27.116Z,102022.05
2018-01-30T21:07:54.861Z,102021.66
2018-01-30T21:10:22.607Z,102020.95
2018-01-30T21:12:50.649Z,102020.08
2018-01-30T21:15:18.406Z,102014.84
2018-01-30T21:17:46.121Z,102002.66
2018-01-30T21:20:13.959Z,102004.50
2018-01-30T21:22:41.672Z,101998.45
2018-01-30T21:25:09.378Z,102001.88
2018-01-30T21:27:37.548Z,101998.21
2018-01-30T21:30:05.302Z,101995.17
2018-01-30T21:32:33.101Z,101993.20
2018-01-30T21:35:00.895Z,101989.69
2018-01-30T21:37:28.695Z,101984.06
2018-01-30T21:39:56.421Z,101978.87
2018-01-30T21:42:24.169Z,101977.75
2018-01-30T21:44:51.925Z,101973.96
2018-01-30T21:47:19.978Z,101965.62
2018-01-30T21:49:47.675Z,101968.30
2018-01-30T21:52:19.031Z,101959.03
2018-01-30T21:54:50.656Z,101956.66
2018-01-30T21:57:18.423Z,101957.43
2018-01-30T21:59:46.184Z,101945.19
2018-01-30T22:02:13.879Z,101941.28
2018-01-30T22:04:41.983Z,101932.09
2018-01-30T22:07:09.698Z,101928.98
2018-01-30T22:09:37.444Z,101918.03
2018-01-30T22:12:05.405Z,101909.63
2018-01-30T22:14:33.047Z,101903.94
2018-01-30T22:17:00.823Z,101898.11
2018-01-30T22:19:28.571Z,101887.09
2018-01-30T22:21:56.231Z,101885.81
2018-01-30T22:24:24.001Z,101886.34
2018-01-30T22:26:51.816Z,101875.33
2018-01-30T22:29:19.523Z,101864.20
2018-01-30T22:31:47.239Z,101854.31
2018-01-30T22:34:15.063Z,101847.20
2018-01-30T22:36:42.744Z,101835.91
2018-01-30T22:39:10.500Z,101828.68
2018-01-30T22:41:38.213Z,101828.44
2018-01-30T22:44:06.619Z,101825.58
2018-01-30T22:46:34.432Z,101818.03
